createdAt,value
2023-05-05T00:00:15.712Z,99119.98
2023-05-05T00:01:49.063Z,99117.13
2023-05-05T00:03:11.073Z,99118.13
2023-05-05T00:04:32.546Z,99118.42
2023-05-05T00:05:57.521Z,99120.88
2023-05-05T00:07:19.673Z,99124.08
2023-05-05T00:08:41.983Z,99120.91
2023-05-05T00:10:06.620Z,99119.67
2023-05-05T00:11:31.096Z,99121.86
2023-05-05T00:12:54.935Z,99122.77
2023-05-05T00:14:16.574Z,99121.60
2023-05-05T00:15:38.213Z,99118.78
2023-05-05T00:17:01.997Z,99118.78
2023-05-05T00:18:23.821Z,99118.58
2023-05-05T00:19:45.549Z,99116.55
2023-05-05T00:21:09.559Z,99111.64
2023-05-05T00:22:31.379Z,99106.21
2023-05-05T00:24:00.800Z,99107.98
2023-05-05T00:25:25.096Z,99105.86
2023-05-05T00:26:46.375Z,99105.82
2023-05-05T00:28:08.464Z,99103.00
2023-05-05T00:29:32.709Z,99091.95
2023-05-05T00:31:02.295Z,99100.78
2023-05-05T00:32:23.798Z,99101.95
2023-05-05T00:33:45.358Z,99101.59
2023-05-05T00:35:14.574Z,99103.56
2023-05-05T00:36:38.750Z,99101.48
2023-05-05T00:38:17.060Z,99100.04
2023-05-05T00:39:48.797Z,99100.70
2023-05-05T00:41:11.067Z,99105.06
2023-05-05T00:42:34.893Z,99099.38
2023-05-05T00:43:56.648Z,99095.20
2023-05-05T00:45:26.082Z,99097.52
2023-05-05T00:46:47.750Z,99094.95
2023-05-05T00:48:11.887Z,99099.11
2023-05-05T00:49:34.168Z,99094.66
2023-05-05T00:50:55.888Z,99090.67
2023-05-05T00:52:19.886Z,99094.87
2023-05-05T00:53:43.014Z,99092.88
2023-05-05T00:55:12.566Z,99074.33
2023-05-05T00:56:34.380Z,99095.31
2023-05-05T00:57:58.380Z,99089.79
2023-05-05T00:59:32.063Z,99095.38
2023-05-05T01:00:56.548Z,99093.79
2023-05-05T01:02:25.982Z,99088.08
2023-05-05T01:03:59.669Z,99085.90
2023-05-05T01:05:29.240Z,99093.13
2023-05-05T01:07:01.033Z,99088.84
2023-05-05T01:08:22.724Z,99090.66
2023-05-05T01:09:44.498Z,99093.69
2023-05-05T01:11:08.255Z,99092.85
2023-05-05T01:12:41.907Z,99091.23
2023-05-05T01:14:06.333Z,99090.30
2023-05-05T01:15:39.638Z,99089.02
2023-05-05T01:17:13.959Z,99088.89
2023-05-05T01:18:35.721Z,99085.30
2023-05-05T01:20:00.138Z,99085.67
2023-05-05T01:21:23.375Z,99085.57
2023-05-05T01:22:45.291Z,99085.27
2023-05-05T01:24:07.781Z,99081.39
2023-05-05T01:25:31.666Z,99085.98
2023-05-05T01:26:55.857Z,99074.05
2023-05-05T01:28:17.554Z,99083.34
2023-05-05T01:29:51.453Z,99084.02
2023-05-05T01:31:13.321Z,99086.31
2023-05-05T01:32:37.656Z,99084.02
2023-05-05T01:34:11.186Z,99082.30
2023-05-05T01:35:33.250Z,99079.80
2023-05-05T01:37:04.678Z,99068.27
2023-05-05T01:38:29.236Z,99080.33
2023-05-05T01:39:50.783Z,99076.45
2023-05-05T01:41:12.899Z,99076.27
2023-05-05T01:42:37.513Z,99079.58
2023-05-05T01:44:01.687Z,99078.38
2023-05-05T01:45:23.535Z,99080.92
2023-05-05T01:46:47.306Z,99080.27
2023-05-05T01:48:09.412Z,99077.13
2023-05-05T01:49:33.384Z,99076.17
2023-05-05T01:50:55.295Z,99065.46
2023-05-05T01:52:18.930Z,99076.56
2023-05-05T01:53:41.447Z,99074.34
2023-05-05T01:55:04.577Z,99074.75
2023-05-05T01:56:26.214Z,99072.45
2023-05-05T01:57:56.892Z,99069.98
2023-05-05T01:59:30.078Z,99069.08
2023-05-05T02:01:03.930Z,99069.17
2023-05-05T02:02:32.781Z,99067.70
2023-05-05T02:03:57.869Z,99067.95
2023-05-05T02:05:21.910Z,99075.42
2023-05-05T02:06:51.708Z,99072.27
2023-05-05T02:08:16.077Z,99073.77
2023-05-05T02:09:38.097Z,99076.55
2023-05-05T02:11:06.966Z,99075.48
2023-05-05T02:12:28.819Z,99073.79
2023-05-05T02:13:50.473Z,99076.27
2023-05-05T02:15:11.872Z,99071.86
2023-05-05T02:16:33.657Z,99069.50
2023-05-05T02:17:57.855Z,99071.10
2023-05-05T02:19:19.749Z,99074.31
2023-05-05T02:20:43.220Z,99067.16
2023-05-05T02:22:05.866Z,99068.40
2023-05-05T02:23:28.202Z,99064.64
2023-05-05T02:24:49.898Z,99067.13
2023-05-05T02:26:12.204Z,99064.61
2023-05-05T02:27:34.301Z,99065.24
2023-05-05T02:28:56.263Z,99064.64
2023-05-05T02:30:18.057Z,99063.45
2023-05-05T02:31:39.738Z,99066.60
2023-05-05T02:33:03.887Z,99061.81
2023-05-05T02:34:28.084Z,99062.48
2023-05-05T02:35:49.467Z,99064.60
2023-05-05T02:37:12.006Z,99059.73
2023-05-05T02:38:36.879Z,99058.16
2023-05-05T02:39:59.128Z,99059.71
2023-05-05T02:41:24.023Z,99059.65
2023-05-05T02:42:46.389Z,99059.73
2023-05-05T02:44:08.978Z,99057.94
2023-05-05T02:45:31.323Z,99058.42
2023-05-05T02:46:57.559Z,99058.08
2023-05-05T02:48:21.383Z,99060.03
2023-05-05T02:49:43.539Z,99060.27
2023-05-05T02:51:07.829Z,99061.16
2023-05-05T02:52:33.726Z,99065.73
2023-05-05T02:53:55.766Z,99067.45
2023-05-05T02:55:18.375Z,99065.92
2023-05-05T02:56:42.680Z,99067.44
2023-05-05T02:58:04.332Z,99064.61
2023-05-05T02:59:27.257Z,99063.92
2023-05-05T03:00:49.486Z,99064.23
2023-05-05T03:02:15.040Z,99068.28
2023-05-05T03:03:37.108Z,99062.83
2023-05-05T03:04:58.932Z,99064.97
2023-05-05T03:06:21.542Z,99064.61
2023-05-05T03:07:43.553Z,99065.79
2023-05-05T03:09:06.243Z,99063.22
2023-05-05T03:10:35.757Z,99059.02
2023-05-05T03:11:59.619Z,99060.61
2023-05-05T03:13:21.802Z,99063.16
2023-05-05T03:14:43.448Z,99061.81
2023-05-05T03:16:06.988Z,99062.45
2023-05-05T03:17:28.695Z,99065.12
2023-05-05T03:18:53.859Z,99062.43
2023-05-05T03:20:15.474Z,99064.77
2023-05-05T03:21:38.563Z,99064.48
2023-05-05T03:23:03.024Z,99066.30
2023-05-05T03:24:24.604Z,99066.39
2023-05-05T03:25:52.627Z,99066.71
2023-05-05T03:27:26.944Z,99068.45
2023-05-05T03:28:48.340Z,99065.55
2023-05-05T03:30:14.576Z,99071.91
2023-05-05T03:31:41.742Z,99069.88
2023-05-05T03:33:22.952Z,99070.39
2023-05-05T03:34:45.088Z,99073.46
2023-05-05T03:36:08.028Z,99073.23
2023-05-05T03:37:31.595Z,99071.73
2023-05-05T03:38:53.320Z,99070.20
2023-05-05T03:40:17.607Z,99074.72
2023-05-05T03:41:39.263Z,99072.92
2023-05-05T03:43:03.917Z,99069.98
2023-05-05T03:44:26.379Z,99068.73
2023-05-05T03:45:48.061Z,99073.55
2023-05-05T03:47:10.135Z,99074.96
2023-05-05T03:48:39.735Z,99076.10
2023-05-05T03:50:02.260Z,99078.13
2023-05-05T03:51:24.223Z,99079.73
2023-05-05T03:52:46.043Z,99083.65
2023-05-05T03:54:17.641Z,99082.51
2023-05-05T03:55:42.049Z,99081.48
2023-05-05T03:57:13.683Z,99082.71
2023-05-05T03:58:36.040Z,99080.39
2023-05-05T04:00:00.322Z,99085.02
2023-05-05T04:01:23.378Z,99083.75
2023-05-05T04:02:45.338Z,99080.57
2023-05-05T04:04:10.292Z,99080.11
2023-05-05T04:05:32.276Z,99077.85
2023-05-05T04:06:53.817Z,99079.88
2023-05-05T04:08:22.604Z,99078.61
2023-05-05T04:09:44.733Z,99070.81
2023-05-05T04:11:09.560Z,99073.98
2023-05-05T04:12:31.849Z,99074.44
2023-05-05T04:13:54.254Z,99077.11
2023-05-05T04:15:18.674Z,99077.64
2023-05-05T04:16:40.979Z,99077.75
2023-05-05T04:18:03.458Z,99076.10
2023-05-05T04:19:25.641Z,99076.17
2023-05-05T04:20:56.855Z,99075.20
2023-05-05T04:22:21.240Z,99072.56
2023-05-05T04:23:53.487Z,99076.96
2023-05-05T04:25:15.989Z,99077.74
2023-05-05T04:26:38.560Z,99079.20
2023-05-05T04:28:00.265Z,99075.91
2023-05-05T04:29:29.812Z,99079.70
2023-05-05T04:30:51.816Z,99081.05
2023-05-05T04:32:13.564Z,99078.34
2023-05-05T04:33:40.255Z,99079.77
2023-05-05T04:35:02.202Z,99078.55
2023-05-05T04:36:23.469Z,99075.77
2023-05-05T04:37:54.865Z,99077.19
2023-05-05T04:39:19.855Z,99081.84
2023-05-05T04:40:41.740Z,99082.58
2023-05-05T04:42:04.691Z,99088.79
2023-05-05T04:43:26.192Z,99085.35
2023-05-05T04:44:47.623Z,99088.65
2023-05-05T04:46:10.047Z,99084.24
2023-05-05T04:47:31.910Z,99087.33
2023-05-05T04:48:53.887Z,99086.36
2023-05-05T04:50:15.496Z,99090.23
2023-05-05T04:51:37.039Z,99084.59
2023-05-05T04:53:01.039Z,99092.16
2023-05-05T04:54:23.208Z,99093.65
2023-05-05T04:55:44.967Z,99095.14
2023-05-05T04:57:07.404Z,99100.27
2023-05-05T04:58:29.860Z,99100.00
2023-05-05T04:59:54.036Z,99102.85
2023-05-05T05:01:15.999Z,99105.92
2023-05-05T05:02:38.222Z,99106.99
2023-05-05T05:04:00.476Z,99107.77
2023-05-05T05:05:30.294Z,99109.48
2023-05-05T05:06:59.091Z,99107.41
2023-05-05T05:08:23.168Z,99108.73
2023-05-05T05:09:46.897Z,99109.14
2023-05-05T05:11:13.873Z,99114.52
2023-05-05T05:12:42.748Z,99115.46
2023-05-05T05:14:08.060Z,99115.70
2023-05-05T05:15:30.161Z,99113.57
2023-05-05T05:16:52.502Z,99113.73
2023-05-05T05:18:21.983Z,99114.23
2023-05-05T05:19:44.156Z,99115.73
2023-05-05T05:21:08.483Z,99117.65
2023-05-05T05:22:30.429Z,99117.98
2023-05-05T05:24:03.644Z,99116.63
2023-05-05T05:25:33.095Z,99115.70
2023-05-05T05:26:57.131Z,99114.84
2023-05-05T05:28:26.611Z,99110.27
2023-05-05T05:29:59.124Z,99113.17
2023-05-05T05:31:20.809Z,99114.38
2023-05-05T05:32:45.376Z,99111.02
2023-05-05T05:34:07.594Z,99111.26
2023-05-05T05:35:29.900Z,99115.98
2023-05-05T05:36:51.316Z,99116.78
2023-05-05T05:38:21.150Z,99123.23
2023-05-05T05:39:46.009Z,99126.52
2023-05-05T05:41:15.491Z,99127.86
2023-05-05T05:42:44.686Z,99122.68
2023-05-05T05:44:07.279Z,99128.73
2023-05-05T05:45:29.239Z,99126.86
2023-05-05T05:46:55.846Z,99126.13
2023-05-05T05:48:18.114Z,99127.14
2023-05-05T05:49:47.308Z,99128.92
2023-05-05T05:51:11.672Z,99130.20
2023-05-05T05:52:33.707Z,99127.55
2023-05-05T05:53:58.949Z,99127.38
2023-05-05T05:55:23.496Z,99131.55
2023-05-05T05:56:45.580Z,99130.05
2023-05-05T05:58:07.790Z,99133.65
2023-05-05T05:59:32.084Z,99130.34
2023-05-05T06:00:53.453Z,99128.52
2023-05-05T06:02:28.332Z,99134.30
2023-05-05T06:03:50.727Z,99132.03
2023-05-05T06:05:13.088Z,99132.67
2023-05-05T06:06:36.333Z,99133.37
2023-05-05T06:07:58.220Z,99133.91
2023-05-05T06:09:20.008Z,99136.77
2023-05-05T06:10:42.311Z,99133.16
2023-05-05T06:12:09.400Z,99136.21
2023-05-05T06:13:31.134Z,99134.17
2023-05-05T06:14:52.547Z,99136.31
2023-05-05T06:16:14.597Z,99139.63
2023-05-05T06:17:36.999Z,99139.02
2023-05-05T06:18:58.574Z,99138.48
2023-05-05T06:20:20.083Z,99138.05
2023-05-05T06:21:44.121Z,99140.39
2023-05-05T06:23:06.845Z,99141.31
2023-05-05T06:24:32.025Z,99138.73
2023-05-05T06:25:55.842Z,99136.16
2023-05-05T06:27:17.470Z,99136.65
2023-05-05T06:28:39.397Z,99135.86
2023-05-05T06:30:01.261Z,99132.11
2023-05-05T06:31:22.814Z,99127.70
2023-05-05T06:32:44.639Z,99141.58
2023-05-05T06:34:12.028Z,99139.61
2023-05-05T06:35:34.475Z,99136.73
2023-05-05T06:36:56.080Z,99140.89
2023-05-05T06:38:24.773Z,99145.42
2023-05-05T06:39:46.555Z,99143.81
2023-05-05T06:41:08.283Z,99143.05
2023-05-05T06:42:32.068Z,99143.10
2023-05-05T06:43:53.858Z,99145.16
2023-05-05T06:45:15.668Z,99145.02
2023-05-05T06:46:37.500Z,99147.02
2023-05-05T06:48:01.572Z,99149.52
2023-05-05T06:49:23.184Z,99146.41
2023-05-05T06:50:47.400Z,99150.02
2023-05-05T06:52:09.506Z,99153.41
2023-05-05T06:53:45.082Z,99152.96
2023-05-05T06:55:07.093Z,99157.95
2023-05-05T06:56:29.040Z,99159.36
2023-05-05T06:57:58.274Z,99158.83
2023-05-05T06:59:20.019Z,99160.73
2023-05-05T07:00:42.310Z,99158.83
2023-05-05T07:02:04.130Z,99157.45
2023-05-05T07:03:25.957Z,99157.59
2023-05-05T07:04:52.394Z,99157.64
2023-05-05T07:06:14.543Z,99159.88
2023-05-05T07:07:38.210Z,99158.48
2023-05-05T07:09:02.695Z,99157.20
2023-05-05T07:10:24.371Z,99160.50
2023-05-05T07:11:46.667Z,99160.42
2023-05-05T07:13:08.826Z,99150.73
2023-05-05T07:14:30.671Z,99160.86
2023-05-05T07:15:52.307Z,99156.75
2023-05-05T07:17:14.213Z,99159.66
2023-05-05T07:18:36.001Z,99160.95
2023-05-05T07:19:57.945Z,99156.88
2023-05-05T07:21:19.636Z,99159.90
2023-05-05T07:22:41.508Z,99157.64
2023-05-05T07:24:05.745Z,99158.80
2023-05-05T07:25:27.857Z,99157.94
2023-05-05T07:26:49.167Z,99160.73
2023-05-05T07:28:11.452Z,99157.64
2023-05-05T07:29:32.982Z,99157.41
2023-05-05T07:30:54.735Z,99159.23
2023-05-05T07:32:19.211Z,99163.70
2023-05-05T07:33:41.266Z,99163.34
2023-05-05T07:35:03.596Z,99159.72
2023-05-05T07:36:25.277Z,99161.08
2023-05-05T07:37:49.365Z,99158.36
2023-05-05T07:39:21.815Z,99158.32
2023-05-05T07:40:43.575Z,99155.98
2023-05-05T07:42:06.751Z,99155.65
2023-05-05T07:43:28.569Z,99153.66
2023-05-05T07:44:50.352Z,99154.36
2023-05-05T07:46:19.526Z,99153.26
2023-05-05T07:47:41.697Z,99150.41
2023-05-05T07:49:03.527Z,99150.19
2023-05-05T07:50:28.068Z,99147.13
2023-05-05T07:51:54.355Z,99143.08
2023-05-05T07:53:18.330Z,99146.83
2023-05-05T07:54:42.544Z,99145.07
2023-05-05T07:56:04.297Z,99142.32
2023-05-05T07:57:26.325Z,99145.73
2023-05-05T07:58:48.088Z,99153.90
2023-05-05T08:00:10.878Z,99149.23
2023-05-05T08:01:38.226Z,99149.82
2023-05-05T08:03:00.372Z,99152.16
2023-05-05T08:04:22.780Z,99149.93
2023-05-05T08:05:45.120Z,99149.83
2023-05-05T08:07:08.064Z,99145.80
2023-05-05T08:08:29.981Z,99150.09
2023-05-05T08:09:51.647Z,99146.96
2023-05-05T08:11:21.200Z,99153.48
2023-05-05T08:12:45.273Z,99152.98
2023-05-05T08:14:07.423Z,99150.73
2023-05-05T08:15:33.925Z,99155.09
2023-05-05T08:16:57.508Z,99150.52
2023-05-05T08:18:21.357Z,99151.89
2023-05-05T08:19:42.868Z,99152.54
2023-05-05T08:21:16.289Z,99155.20
2023-05-05T08:22:49.804Z,99151.08
2023-05-05T08:24:13.788Z,99150.86
2023-05-05T08:25:35.534Z,99153.02
2023-05-05T08:26:56.761Z,99151.25
2023-05-05T08:31:28.107Z,99150.94
2023-05-05T08:32:52.172Z,99152.47
2023-05-05T08:34:16.450Z,99148.11
2023-05-05T08:35:38.311Z,99142.80
2023-05-05T08:37:11.764Z,99150.98
2023-05-05T08:38:33.401Z,99151.21
2023-05-05T08:39:54.990Z,99152.58
2023-05-05T08:41:16.784Z,99154.47
2023-05-05T08:42:39.580Z,99153.63
2023-05-05T08:44:06.670Z,99150.92
2023-05-05T08:45:28.170Z,99151.21
2023-05-05T08:46:50.195Z,99152.30
2023-05-05T08:48:12.299Z,99148.80
2023-05-05T08:49:36.179Z,99140.73
2023-05-05T08:51:01.375Z,99150.46
2023-05-05T08:52:24.586Z,99148.65
2023-05-05T08:53:47.099Z,99148.60
2023-05-05T08:55:16.772Z,99143.95
2023-05-05T08:56:40.799Z,99135.93
2023-05-05T08:58:06.145Z,99138.12
2023-05-05T08:59:30.283Z,99142.71
2023-05-05T09:00:51.692Z,99143.23
2023-05-05T09:02:23.730Z,99139.47
2023-05-05T09:03:47.509Z,99139.94
2023-05-05T09:05:10.014Z,99142.23
2023-05-05T09:06:33.734Z,99139.86
2023-05-05T09:07:55.608Z,99140.91
2023-05-05T09:09:36.804Z,99144.59
2023-05-05T09:11:12.202Z,99143.37
2023-05-05T09:12:36.388Z,99139.96
2023-05-05T09:14:09.669Z,99141.39
2023-05-05T09:15:34.278Z,99141.54
2023-05-05T09:16:56.058Z,99138.58
2023-05-05T09:18:20.185Z,99143.80
2023-05-05T09:19:42.096Z,99139.25
2023-05-05T09:21:03.788Z,99137.95
2023-05-05T09:22:25.205Z,99136.59
2023-05-05T09:23:47.137Z,99134.23
2023-05-05T09:25:09.111Z,99137.65
2023-05-05T09:26:30.971Z,99140.36
2023-05-05T09:27:52.824Z,99138.84
2023-05-05T09:29:14.912Z,99140.21
2023-05-05T09:30:36.805Z,99139.98
2023-05-05T09:31:58.825Z,99145.95
2023-05-05T09:33:20.928Z,99145.07
2023-05-05T09:34:42.879Z,99135.27
2023-05-05T09:36:04.608Z,99140.50
2023-05-05T09:37:26.445Z,99146.58
2023-05-05T09:38:50.692Z,99145.92
2023-05-05T09:40:12.892Z,99142.72
2023-05-05T09:41:34.895Z,99139.60
2023-05-05T09:42:56.042Z,99143.02
2023-05-05T09:44:20.091Z,99139.94
2023-05-05T09:45:44.108Z,99140.61
2023-05-05T09:47:22.031Z,99133.55
2023-05-05T09:48:49.986Z,99141.70
2023-05-05T09:50:14.276Z,99131.63
2023-05-05T09:51:38.595Z,99135.09
2023-05-05T09:53:00.557Z,99132.09
2023-05-05T09:54:27.574Z,99140.12
2023-05-05T09:56:00.419Z,99140.89
2023-05-05T09:57:27.067Z,99141.57
2023-05-05T09:58:48.501Z,99138.19
2023-05-05T10:00:11.423Z,99133.30
2023-05-05T10:01:44.996Z,99141.33
2023-05-05T10:03:11.771Z,99137.52
2023-05-05T10:04:45.404Z,99132.42
2023-05-05T10:06:07.927Z,99135.33
2023-05-05T10:07:30.363Z,99137.70
2023-05-05T10:08:54.073Z,99133.14
2023-05-05T10:10:16.481Z,99135.38
2023-05-05T10:11:38.266Z,99134.30
2023-05-05T10:12:59.776Z,99133.59
2023-05-05T10:14:29.343Z,99135.64
2023-05-05T10:16:09.972Z,99132.25
2023-05-05T10:17:33.014Z,99129.10
2023-05-05T10:18:56.952Z,99128.95
2023-05-05T10:20:18.649Z,99131.52
2023-05-05T10:21:47.842Z,99132.23
2023-05-05T10:23:17.332Z,99133.38
2023-05-05T10:24:38.818Z,99135.45
2023-05-05T10:26:08.239Z,99132.04
2023-05-05T10:27:32.330Z,99134.09
2023-05-05T10:29:06.021Z,99132.44
2023-05-05T10:30:30.247Z,99130.25
2023-05-05T10:31:52.070Z,99127.70
2023-05-05T10:33:30.093Z,99128.74
2023-05-05T10:34:53.124Z,99122.77
2023-05-05T10:36:26.960Z,99121.27
2023-05-05T10:37:50.949Z,99124.08
2023-05-05T10:39:15.043Z,99123.88
2023-05-05T10:40:39.453Z,99123.62
2023-05-05T10:42:02.314Z,99124.59
2023-05-05T10:43:24.453Z,99126.70
2023-05-05T10:44:46.017Z,99127.45
2023-05-05T10:46:07.816Z,99120.98
2023-05-05T10:47:31.758Z,99122.04
2023-05-05T10:49:01.015Z,99120.96
2023-05-05T10:50:22.678Z,99120.09
2023-05-05T10:51:44.343Z,99114.86
2023-05-05T10:53:13.906Z,99108.73
2023-05-05T10:54:37.821Z,99118.52
2023-05-05T10:55:59.910Z,99115.70
2023-05-05T10:57:22.047Z,99115.20
2023-05-05T10:58:55.387Z,99118.53
2023-05-05T11:00:28.418Z,99111.52
2023-05-05T11:02:01.398Z,99101.86
2023-05-05T11:03:23.890Z,99105.93
2023-05-05T11:04:45.461Z,99108.39
2023-05-05T11:06:12.442Z,99103.02
2023-05-05T11:07:46.139Z,99104.34
2023-05-05T11:09:15.215Z,99104.84
2023-05-05T11:10:50.897Z,99097.95
2023-05-05T11:12:13.820Z,99100.14
2023-05-05T11:13:49.505Z,99102.75
2023-05-05T11:15:11.317Z,99100.69
2023-05-05T11:16:32.889Z,99101.00
2023-05-05T11:18:08.964Z,99099.92
2023-05-05T11:19:42.389Z,99110.29
2023-05-05T11:21:04.345Z,99101.58
2023-05-05T11:22:28.040Z,99103.45
2023-05-05T11:24:00.955Z,99104.00
2023-05-05T11:25:24.963Z,99105.70
2023-05-05T11:26:46.861Z,99101.06
2023-05-05T11:28:39.954Z,99099.40
2023-05-05T11:30:33.097Z,99098.52
2023-05-05T11:32:04.801Z,99099.34
2023-05-05T11:33:45.532Z,99100.09
2023-05-05T11:35:21.884Z,99099.93
2023-05-05T11:36:57.124Z,99098.17
2023-05-05T11:38:38.253Z,99098.34
2023-05-05T11:39:59.902Z,99096.80
2023-05-05T11:41:21.728Z,99097.86
2023-05-05T11:42:50.845Z,99096.66
2023-05-05T11:44:27.024Z,99097.02
2023-05-05T11:46:00.312Z,99100.77
2023-05-05T11:47:24.800Z,99104.93
2023-05-05T11:48:58.209Z,99098.71
2023-05-05T11:50:30.200Z,99105.58
2023-05-05T11:51:56.065Z,99104.99
2023-05-05T11:53:18.247Z,99102.16
2023-05-05T11:54:41.793Z,99100.89
2023-05-05T11:56:05.842Z,99102.98
2023-05-05T11:57:27.731Z,99101.59
2023-05-05T11:59:10.998Z,99101.05
2023-05-05T12:00:42.308Z,99102.85
2023-05-05T12:02:03.960Z,99098.67
2023-05-05T12:03:38.062Z,99100.39
2023-05-05T12:05:04.828Z,99091.49
2023-05-05T12:06:46.020Z,99098.83
2023-05-05T12:08:08.374Z,99094.45
2023-05-05T12:09:29.775Z,99095.59
2023-05-05T12:11:06.160Z,99095.73
2023-05-05T12:12:28.594Z,99097.57
2023-05-05T12:13:49.947Z,99098.77
2023-05-05T12:15:14.405Z,99097.12
2023-05-05T12:16:38.541Z,99098.70
2023-05-05T12:18:02.385Z,99096.73
2023-05-05T12:19:33.206Z,99094.34
2023-05-05T12:20:54.607Z,99094.71
2023-05-05T12:22:19.450Z,99095.11
2023-05-05T12:23:41.361Z,99098.02
2023-05-05T12:25:02.627Z,99091.47
2023-05-05T12:26:25.236Z,99092.64
2023-05-05T12:27:49.650Z,99092.41
2023-05-05T12:29:11.702Z,99093.15
2023-05-05T12:30:33.641Z,99093.04
2023-05-05T12:31:57.967Z,99096.34
2023-05-05T12:33:20.578Z,99092.72
2023-05-05T12:34:57.245Z,99090.10
2023-05-05T12:36:19.413Z,99088.78
2023-05-05T12:37:43.485Z,99091.61
2023-05-05T12:39:05.520Z,99092.46
2023-05-05T12:40:27.085Z,99094.95
2023-05-05T12:41:50.833Z,99091.14
2023-05-05T12:43:17.482Z,99091.08
2023-05-05T12:44:43.580Z,99090.36
2023-05-05T12:46:07.676Z,99086.08
2023-05-05T12:47:36.935Z,99093.38
2023-05-05T12:49:12.510Z,99091.14
2023-05-05T12:50:34.581Z,99094.14
2023-05-05T12:51:56.458Z,99088.61
2023-05-05T12:53:20.784Z,99088.13
2023-05-05T12:54:44.758Z,99088.80
2023-05-05T12:56:06.940Z,99084.75
2023-05-05T12:57:30.836Z,99085.18
2023-05-05T12:58:55.073Z,99084.11
2023-05-05T13:00:18.063Z,99078.09
2023-05-05T13:01:42.192Z,99083.46
2023-05-05T13:03:06.545Z,99081.81
2023-05-05T13:04:30.636Z,99084.73
2023-05-05T13:05:52.099Z,99080.84
2023-05-05T13:07:21.155Z,99083.95
2023-05-05T13:08:54.580Z,99080.51
2023-05-05T13:10:16.850Z,99081.52
2023-05-05T13:11:38.763Z,99080.35
2023-05-05T13:13:00.192Z,99082.00
2023-05-05T13:14:25.050Z,99079.46
2023-05-05T13:16:00.892Z,99074.35
2023-05-05T13:17:34.707Z,99079.62
2023-05-05T13:19:08.440Z,99071.13
2023-05-05T13:20:29.969Z,99070.98
2023-05-05T13:21:51.643Z,99077.47
2023-05-05T13:23:14.028Z,99072.12
2023-05-05T13:24:49.762Z,99078.44
2023-05-05T13:26:13.597Z,99072.25
2023-05-05T13:27:37.682Z,99074.24
2023-05-05T13:28:59.508Z,99071.19
2023-05-05T13:30:21.473Z,99070.38
2023-05-05T13:31:50.578Z,99069.34
2023-05-05T13:33:14.824Z,99060.23
2023-05-05T13:34:39.284Z,99063.52
2023-05-05T13:36:08.879Z,99060.49
2023-05-05T13:37:30.634Z,99064.04
2023-05-05T13:38:54.673Z,99057.77
2023-05-05T13:40:18.930Z,99060.33
2023-05-05T13:41:40.727Z,99063.61
2023-05-05T13:43:14.141Z,99062.10
2023-05-05T13:44:37.896Z,99061.41
2023-05-05T13:46:08.700Z,99049.39
2023-05-05T13:47:39.062Z,99061.60
2023-05-05T13:49:12.677Z,99064.55
2023-05-05T13:50:36.540Z,99069.23
2023-05-05T13:51:58.529Z,99066.09
2023-05-05T13:53:40.210Z,99060.63
2023-05-05T13:55:01.750Z,99058.77
2023-05-05T13:56:37.979Z,99058.08
2023-05-05T13:58:02.020Z,99056.42
2023-05-05T13:59:25.789Z,99058.79
2023-05-05T14:00:55.227Z,99057.55
2023-05-05T14:02:24.925Z,99061.80
2023-05-05T14:04:13.858Z,99064.27
2023-05-05T14:05:42.800Z,99063.10
2023-05-05T14:07:04.809Z,99059.27
2023-05-05T14:08:46.059Z,99058.52
2023-05-05T14:10:08.072Z,99055.55
2023-05-05T14:11:31.518Z,99050.41
2023-05-05T14:12:53.391Z,99049.23
2023-05-05T14:14:16.308Z,99054.02
2023-05-05T14:15:39.927Z,99049.66
2023-05-05T14:17:01.983Z,99056.09
2023-05-05T14:18:24.015Z,99053.17
2023-05-05T14:19:45.726Z,99048.29
2023-05-05T14:21:12.507Z,99045.98
2023-05-05T14:22:38.387Z,99051.77
2023-05-05T14:23:59.995Z,99051.70
2023-05-05T14:25:24.673Z,99054.71
2023-05-05T14:26:48.952Z,99057.88
2023-05-05T14:28:11.528Z,99057.10
2023-05-05T14:29:35.291Z,99053.20
2023-05-05T14:30:57.198Z,99054.30
2023-05-05T14:32:27.235Z,99056.72
2023-05-05T14:33:56.571Z,99058.25
2023-05-05T14:35:18.645Z,99064.52
2023-05-05T14:36:41.149Z,99064.38
2023-05-05T14:38:07.536Z,99057.22
2023-05-05T14:39:31.888Z,99060.55
2023-05-05T14:40:55.838Z,99058.73
2023-05-05T14:42:17.882Z,99061.69
2023-05-05T14:43:51.298Z,99062.21
2023-05-05T14:45:21.189Z,99062.13
2023-05-05T14:46:54.338Z,99068.73
2023-05-05T14:48:16.661Z,99068.33
2023-05-05T14:49:38.620Z,99070.42
2023-05-05T14:51:02.999Z,99065.44
2023-05-05T14:52:24.897Z,99066.28
2023-05-05T14:53:58.506Z,99067.33
2023-05-05T14:55:24.873Z,99067.98
2023-05-05T14:56:46.982Z,99069.25
2023-05-05T14:58:09.217Z,99067.74
2023-05-05T14:59:33.556Z,99071.52
2023-05-05T15:01:02.425Z,99072.77
2023-05-05T15:02:24.509Z,99071.29
2023-05-05T15:03:46.233Z,99076.48
2023-05-05T15:05:08.418Z,99071.50
2023-05-05T15:06:31.146Z,99077.05
2023-05-05T15:07:52.517Z,99072.45
2023-05-05T15:09:26.216Z,99069.69
2023-05-05T15:10:48.108Z,99067.92
2023-05-05T15:12:12.328Z,99066.19
2023-05-05T15:13:45.935Z,99067.02
2023-05-05T15:15:08.954Z,99066.88
2023-05-05T15:16:31.719Z,99069.27
2023-05-05T15:17:54.211Z,99073.15
2023-05-05T15:19:27.713Z,99073.43
2023-05-05T15:20:49.241Z,99076.73
2023-05-05T15:22:13.563Z,99074.41
2023-05-05T15:23:44.946Z,99074.90
2023-05-05T15:25:09.788Z,99073.46
2023-05-05T15:26:34.511Z,99075.42
2023-05-05T15:28:10.924Z,99073.89
2023-05-05T15:29:32.523Z,99072.66
2023-05-05T15:30:54.062Z,99072.45
2023-05-05T15:32:16.089Z,99078.66
2023-05-05T15:33:38.737Z,99079.98
2023-05-05T15:35:00.221Z,99074.19
2023-05-05T15:36:30.092Z,99071.98
2023-05-05T15:37:54.161Z,99067.82
2023-05-05T15:39:23.367Z,99070.71
2023-05-05T15:40:50.344Z,99072.98
2023-05-05T15:42:12.540Z,99077.02
2023-05-05T15:43:34.260Z,99076.11
2023-05-05T15:44:55.539Z,99072.64
2023-05-05T15:46:17.532Z,99069.48
2023-05-05T15:47:41.542Z,99072.42
2023-05-05T15:49:03.163Z,99072.23
2023-05-05T15:50:24.947Z,99070.04
2023-05-05T15:51:48.011Z,99071.65
2023-05-05T15:53:10.109Z,99069.88
2023-05-05T15:54:38.852Z,99075.05
2023-05-05T15:56:00.431Z,99075.14
2023-05-05T15:57:24.528Z,99073.30
2023-05-05T15:58:45.880Z,99071.77
2023-05-05T16:00:07.892Z,99071.14
2023-05-05T16:01:29.361Z,99070.60
2023-05-05T16:02:53.205Z,99073.65
2023-05-05T16:04:22.234Z,99072.80
2023-05-05T16:05:44.183Z,99069.16
2023-05-05T16:07:05.940Z,99073.39
2023-05-05T16:08:27.813Z,99047.13
2023-05-05T16:09:49.378Z,99067.02
2023-05-05T16:11:19.460Z,99064.92
2023-05-05T16:12:44.460Z,99064.83
2023-05-05T16:14:18.522Z,99067.45
2023-05-05T16:15:49.698Z,99072.14
2023-05-05T16:17:11.692Z,99069.61
2023-05-05T16:18:33.528Z,99072.62
2023-05-05T16:20:02.702Z,99073.69
2023-05-05T16:21:36.653Z,99073.68
2023-05-05T16:22:58.089Z,99071.72
2023-05-05T16:24:19.958Z,99072.92
2023-05-05T16:25:41.734Z,99075.63
2023-05-05T16:27:03.105Z,99070.90
2023-05-05T16:28:24.806Z,99068.33
2023-05-05T16:29:49.257Z,99072.59
2023-05-05T16:31:11.267Z,99070.84
2023-05-05T16:32:40.543Z,99074.04
2023-05-05T16:34:02.219Z,99075.52
2023-05-05T16:35:33.700Z,99077.03
2023-05-05T16:36:56.635Z,99077.12
2023-05-05T16:38:18.214Z,99076.29
2023-05-05T16:39:41.166Z,99072.58
2023-05-05T16:41:12.638Z,99076.20